createdAt,value
2022-12-18T00:02:41.797Z,4.47
2022-12-18T00:05:50.754Z,4.37
2022-12-18T00:08:52.462Z,4.70
2022-12-18T00:11:54.112Z,5.10
2022-12-18T00:14:55.678Z,4.17
2022-12-18T00:17:57.239Z,4.37
2022-12-18T00:21:02.746Z,4.20
2022-12-18T00:24:04.472Z,4.30
2022-12-18T00:27:06.121Z,3.97
2022-12-18T00:30:08.180Z,4.03
2022-12-18T00:33:09.891Z,4.17
2022-12-18T00:36:12.964Z,4.47
2022-12-18T00:39:14.549Z,4.20
2022-12-18T00:42:38.360Z,4.17
2022-12-18T00:45:40.393Z,4.33
2022-12-18T00:48:42.694Z,4.30
2022-12-18T00:51:44.550Z,4.30
2022-12-18T00:54:46.296Z,4.70
2022-12-18T00:57:47.952Z,4.50
2022-12-18T01:00:49.626Z,4.53
2022-12-18T01:03:51.724Z,5.27
2022-12-18T01:06:55.272Z,4.63
2022-12-18T01:09:56.912Z,5.10
2022-12-18T01:12:58.566Z,6.30
2022-12-18T01:16:00.272Z,4.80
2022-12-18T01:19:02.035Z,5.50
2022-12-18T01:22:04.296Z,6.20
2022-12-18T01:25:06.611Z,5.70
2022-12-18T01:28:08.176Z,5.60
2022-12-18T01:31:10.671Z,5.70
2022-12-18T01:34:12.306Z,5.40
2022-12-18T01:37:13.902Z,5.73
2022-12-18T01:40:15.472Z,7.70
2022-12-18T01:43:17.220Z,5.80
2022-12-18T01:46:19.763Z,6.10
2022-12-18T01:49:21.378Z,7.13
2022-12-18T01:52:23.488Z,6.87
2022-12-18T01:55:27.238Z,7.13
2022-12-18T01:58:51.903Z,7.60
2022-12-18T02:01:53.723Z,6.77
2022-12-18T02:04:55.558Z,6.80
2022-12-18T02:08:10.489Z,6.23
2022-12-18T02:11:17.125Z,5.40
2022-12-18T02:14:19.382Z,6.20
2022-12-18T02:17:30.229Z,6.60
2022-12-18T02:20:34.882Z,7.20
2022-12-18T02:23:52.281Z,6.30
2022-12-18T02:26:59.734Z,7.03
2022-12-18T02:30:05.059Z,7.20
2022-12-18T02:33:08.446Z,7.40
2022-12-18T02:36:11.795Z,7.23
2022-12-18T02:39:14.355Z,8.33
2022-12-18T02:42:25.194Z,7.97
2022-12-18T02:45:27.281Z,8.00
2022-12-18T02:48:32.121Z,8.10
2022-12-18T02:51:40.750Z,8.37
2022-12-18T02:54:51.729Z,7.50
2022-12-18T02:58:20.172Z,8.30
2022-12-18T03:01:37.876Z,8.10
2022-12-18T03:04:59.933Z,8.60
2022-12-18T03:08:09.016Z,8.70
2022-12-18T03:11:14.269Z,8.33
2022-12-18T03:14:18.541Z,14.13
2022-12-18T03:17:23.542Z,9.23
2022-12-18T03:20:28.101Z,9.57
2022-12-18T03:23:32.475Z,9.80
2022-12-18T03:26:36.357Z,9.50
2022-12-18T03:29:50.014Z,9.13
2022-12-18T03:33:14.180Z,9.27
2022-12-18T03:36:19.886Z,10.20
2022-12-18T03:39:22.671Z,9.57
2022-12-18T03:42:33.816Z,10.77
2022-12-18T03:45:51.892Z,9.47
2022-12-18T03:48:57.389Z,10.27
2022-12-18T03:52:33.046Z,9.87
2022-12-18T03:55:35.789Z,10.07
2022-12-18T03:58:41.455Z,8.83
2022-12-18T04:01:57.409Z,9.80
2022-12-18T04:05:01.238Z,11.40
2022-12-18T04:08:03.045Z,11.27
2022-12-18T04:11:06.416Z,10.87
2022-12-18T04:14:11.851Z,12.47
2022-12-18T04:17:16.506Z,12.97
2022-12-18T04:20:18.656Z,13.83
2022-12-18T04:23:20.874Z,12.80
2022-12-18T04:26:23.936Z,15.07
2022-12-18T04:29:39.276Z,14.50
2022-12-18T04:32:40.931Z,14.20
2022-12-18T04:35:44.134Z,14.30
2022-12-18T04:38:45.945Z,14.03
2022-12-18T04:41:50.733Z,13.13
2022-12-18T04:44:52.798Z,13.17
2022-12-18T04:47:54.459Z,15.83
2022-12-18T04:50:56.189Z,14.63
2022-12-18T04:53:57.795Z,16.57
2022-12-18T04:56:59.399Z,14.40
2022-12-18T05:00:01.904Z,13.70
2022-12-18T05:03:04.020Z,16.07
2022-12-18T05:06:06.069Z,16.17
2022-12-18T05:09:07.728Z,17.73
2022-12-18T05:12:09.406Z,18.73
2022-12-18T05:15:11.017Z,18.50
2022-12-18T05:18:12.636Z,17.43
2022-12-18T05:21:14.318Z,16.27
2022-12-18T05:24:15.985Z,16.20
2022-12-18T05:27:18.795Z,16.97
2022-12-18T05:30:20.397Z,15.20
2022-12-18T05:33:22.789Z,15.00
2022-12-18T05:36:24.450Z,16.83
2022-12-18T05:39:26.048Z,17.00
2022-12-18T05:42:27.627Z,19.73
2022-12-18T05:45:29.230Z,22.27
2022-12-18T05:48:30.823Z,21.20
2022-12-18T05:51:32.531Z,20.10
2022-12-18T05:54:34.227Z,19.27
2022-12-18T05:57:35.784Z,21.33
2022-12-18T06:00:40.947Z,22.00
2022-12-18T06:03:42.950Z,19.90
2022-12-18T06:06:45.917Z,19.57
2022-12-18T06:09:47.524Z,19.17
2022-12-18T06:12:49.211Z,20.00
2022-12-18T06:15:50.842Z,14.37
2022-12-18T06:18:52.502Z,16.30
2022-12-18T06:21:54.250Z,14.03
2022-12-18T06:24:55.885Z,19.67
2022-12-18T06:27:57.480Z,22.67
2022-12-18T06:30:59.091Z,16.13
2022-12-18T06:34:03.267Z,14.77
2022-12-18T06:37:05.598Z,15.40
2022-12-18T06:40:07.726Z,18.37
2022-12-18T06:43:09.327Z,17.17
2022-12-18T06:46:11.354Z,15.30
2022-12-18T06:49:13.499Z,16.73
2022-12-18T06:52:18.583Z,16.57
2022-12-18T06:55:20.138Z,13.50
2022-12-18T06:58:21.787Z,16.63
2022-12-18T07:01:23.868Z,16.33
2022-12-18T07:04:29.783Z,16.03
2022-12-18T07:07:31.425Z,14.13
2022-12-18T07:10:33.048Z,14.17
2022-12-18T07:13:34.635Z,12.53
2022-12-18T07:16:36.243Z,14.47
2022-12-18T07:19:38.358Z,15.77
2022-12-18T07:22:39.942Z,13.20
2022-12-18T07:25:43.714Z,12.43
2022-12-18T07:28:45.817Z,13.17
2022-12-18T07:31:50.501Z,15.70
2022-12-18T07:34:52.084Z,13.73
2022-12-18T07:37:53.741Z,13.03
2022-12-18T07:40:55.440Z,13.83
2022-12-18T07:43:57.146Z,13.87
2022-12-18T07:46:58.781Z,19.30
2022-12-18T07:50:00.414Z,14.30
2022-12-18T07:53:04.624Z,17.63
2022-12-18T07:59:29.306Z,17.17
2022-12-18T08:02:36.677Z,14.03
2022-12-18T08:05:38.391Z,14.73
2022-12-18T08:08:41.660Z,15.97
2022-12-18T08:11:43.472Z,18.20
2022-12-18T08:14:45.287Z,17.97
2022-12-18T08:17:46.906Z,15.90
2022-12-18T08:20:48.596Z,15.97
2022-12-18T08:23:51.525Z,15.73
2022-12-18T08:27:20.853Z,15.77
2022-12-18T08:30:15.132Z,14.10
2022-12-18T08:33:16.729Z,13.43
2022-12-18T08:36:18.707Z,13.50
2022-12-18T08:39:20.370Z,14.50
2022-12-18T08:42:40.407Z,14.03
2022-12-18T08:45:42.034Z,13.43
2022-12-18T08:48:43.723Z,13.47
2022-12-18T08:51:45.356Z,14.03
2022-12-18T08:54:46.936Z,14.23
2022-12-18T08:57:51.591Z,13.60
2022-12-18T09:00:53.203Z,11.00
2022-12-18T09:03:55.060Z,12.03
2022-12-18T09:06:56.700Z,10.00
2022-12-18T09:09:58.298Z,10.60
2022-12-18T09:12:59.887Z,13.47
2022-12-18T09:16:04.098Z,10.57
2022-12-18T09:19:06.501Z,9.23
2022-12-18T09:22:08.119Z,9.87
2022-12-18T09:25:09.842Z,11.80
2022-12-18T09:28:13.032Z,11.03
2022-12-18T09:31:15.300Z,12.73
2022-12-18T09:34:17.738Z,12.83
2022-12-18T09:37:19.478Z,10.93
2022-12-18T09:40:23.185Z,13.33
2022-12-18T09:43:30.770Z,11.13
2022-12-18T09:46:38.942Z,9.97
2022-12-18T09:49:42.987Z,12.60
2022-12-18T09:52:50.237Z,11.73
2022-12-18T09:55:53.145Z,10.63
2022-12-18T09:59:04.506Z,16.30
2022-12-18T10:02:16.911Z,15.90
2022-12-18T10:05:22.084Z,13.70
2022-12-18T10:08:30.896Z,10.93
2022-12-18T10:11:40.102Z,10.60
2022-12-18T10:15:00.624Z,11.77
2022-12-18T10:18:02.213Z,9.93
2022-12-18T10:21:08.145Z,11.07
2022-12-18T10:24:10.313Z,9.10
2022-12-18T10:27:16.219Z,10.23
2022-12-18T10:30:19.245Z,9.90
2022-12-18T10:33:22.601Z,10.93
2022-12-18T10:36:24.918Z,9.03
2022-12-18T10:39:29.939Z,10.00
2022-12-18T10:42:32.056Z,7.27
2022-12-18T10:45:33.636Z,8.80
2022-12-18T10:48:55.612Z,6.57
2022-12-18T10:52:12.547Z,6.20
2022-12-18T10:55:17.126Z,11.77
2022-12-18T10:58:30.626Z,6.63
2022-12-18T11:01:47.068Z,5.93
2022-12-18T11:04:52.684Z,6.60
2022-12-18T11:07:57.375Z,7.30
2022-12-18T11:10:59.034Z,9.00
2022-12-18T11:14:05.261Z,8.63
2022-12-18T11:17:26.864Z,8.73
2022-12-18T11:20:32.847Z,7.40
2022-12-18T11:23:35.153Z,8.87
2022-12-18T11:26:37.230Z,8.40
2022-12-18T11:29:46.221Z,8.67
2022-12-18T11:32:49.826Z,7.57
2022-12-18T11:36:00.188Z,9.37
2022-12-18T11:39:04.474Z,9.80
2022-12-18T11:42:10.999Z,7.80
2022-12-18T11:45:12.707Z,7.03
2022-12-18T11:48:23.404Z,8.03
2022-12-18T11:51:33.281Z,6.27
2022-12-18T11:54:34.905Z,8.13
2022-12-18T11:57:55.042Z,7.60
2022-12-18T12:00:56.627Z,8.73
2022-12-18T12:04:21.515Z,12.70
2022-12-18T12:07:43.337Z,8.43
2022-12-18T12:11:20.411Z,7.20
2022-12-18T12:14:33.516Z,10.30
2022-12-18T12:17:44.314Z,7.07
2022-12-18T12:20:45.912Z,7.40
2022-12-18T12:24:02.936Z,7.23
2022-12-18T12:27:12.123Z,7.13
2022-12-18T12:30:21.691Z,7.67
2022-12-18T12:33:36.237Z,7.27
2022-12-18T12:36:44.261Z,7.27
2022-12-18T12:39:47.683Z,8.40
2022-12-18T12:43:11.669Z,7.83
2022-12-18T12:46:15.365Z,7.93
2022-12-18T12:49:19.217Z,10.33
2022-12-18T12:52:38.427Z,8.90
2022-12-18T12:55:41.279Z,13.37
2022-12-18T12:58:42.870Z,8.63
2022-12-18T13:02:07.772Z,7.60
2022-12-18T13:05:28.222Z,8.17
2022-12-18T13:08:31.127Z,9.23
2022-12-18T13:12:00.031Z,11.27
2022-12-18T13:15:22.132Z,13.17
2022-12-18T13:18:24.126Z,14.00
2022-12-18T13:21:28.443Z,8.23
2022-12-18T13:24:31.853Z,8.60
2022-12-18T13:27:46.269Z,7.20
2022-12-18T13:30:53.281Z,10.50
2022-12-18T13:34:27.811Z,13.00
2022-12-18T13:37:33.618Z,13.70
2022-12-18T13:40:41.303Z,8.87
2022-12-18T13:43:49.091Z,9.20
2022-12-18T13:46:51.746Z,9.70
2022-12-18T13:49:53.718Z,13.50
2022-12-18T13:52:55.341Z,11.40
2022-12-18T13:55:57.438Z,10.83
2022-12-18T13:59:28.344Z,11.43
2022-12-18T14:02:30.249Z,12.30
2022-12-18T14:05:33.692Z,11.57
2022-12-18T14:08:42.022Z,9.97
2022-12-18T14:11:48.226Z,11.03
2022-12-18T14:14:53.481Z,11.10
2022-12-18T14:18:02.083Z,8.40
2022-12-18T14:21:05.117Z,21.27
2022-12-18T14:24:09.965Z,9.93
2022-12-18T14:27:24.197Z,10.27
2022-12-18T14:30:39.287Z,7.23
2022-12-18T14:33:41.343Z,8.10
2022-12-18T14:36:52.571Z,8.50
2022-12-18T14:39:58.176Z,7.20
2022-12-18T14:42:59.811Z,8.63
2022-12-18T14:46:02.733Z,9.93
2022-12-18T14:49:23.066Z,9.87
2022-12-18T14:52:29.102Z,12.90
2022-12-18T14:55:30.790Z,14.37
2022-12-18T14:58:32.644Z,14.67
2022-12-18T15:01:36.245Z,11.87
2022-12-18T15:04:42.991Z,12.67
2022-12-18T15:07:47.772Z,13.13
2022-12-18T15:10:49.683Z,12.33
2022-12-18T15:13:51.274Z,15.43
2022-12-18T15:16:54.635Z,15.27
2022-12-18T15:20:01.243Z,17.83
2022-12-18T15:23:02.902Z,13.47
2022-12-18T15:26:10.031Z,13.30
2022-12-18T15:29:22.799Z,15.70
2022-12-18T15:32:24.376Z,14.33
2022-12-18T15:35:25.995Z,13.67
2022-12-18T15:38:28.034Z,13.20
2022-12-18T15:41:31.863Z,12.20
2022-12-18T15:44:35.020Z,18.10
2022-12-18T15:47:36.640Z,26.47
2022-12-18T15:50:38.201Z,17.07
2022-12-18T15:53:40.297Z,13.20
2022-12-18T15:57:00.616Z,13.60
2022-12-18T16:00:02.416Z,10.57
2022-12-18T16:03:07.163Z,12.97
2022-12-18T16:06:09.969Z,13.53
2022-12-18T16:09:11.726Z,9.20
2022-12-18T16:12:18.128Z,9.97
2022-12-18T16:15:24.488Z,9.00
2022-12-18T16:18:26.435Z,10.50
2022-12-18T16:21:33.701Z,9.43
2022-12-18T16:24:37.323Z,8.77
2022-12-18T16:27:38.966Z,9.10
2022-12-18T16:30:41.316Z,9.13
2022-12-18T16:33:43.402Z,11.27
2022-12-18T16:36:45.466Z,10.87
2022-12-18T16:39:47.062Z,9.33
2022-12-18T16:42:48.808Z,9.10
2022-12-18T16:45:50.416Z,13.43
2022-12-18T16:48:53.415Z,13.30
2022-12-18T16:51:55.038Z,11.23
2022-12-18T16:54:56.972Z,11.97
2022-12-18T16:57:58.597Z,13.23
2022-12-18T17:01:00.510Z,19.53
2022-12-18T17:04:03.175Z,13.87
2022-12-18T17:07:04.865Z,12.50
2022-12-18T17:10:06.716Z,14.83
2022-12-18T17:13:08.341Z,14.67
2022-12-18T17:16:09.960Z,15.53
2022-12-18T17:19:16.779Z,13.03
2022-12-18T17:22:19.065Z,13.73
2022-12-18T17:25:20.672Z,12.83
2022-12-18T17:28:22.458Z,13.57
2022-12-18T17:31:25.177Z,18.33
2022-12-18T17:34:26.839Z,16.70
2022-12-18T17:37:28.426Z,15.33
2022-12-18T17:40:32.463Z,12.83
2022-12-18T17:43:39.817Z,13.27
2022-12-18T17:46:41.998Z,12.63
2022-12-18T17:49:43.961Z,13.80
2022-12-18T17:52:45.573Z,10.43
2022-12-18T17:56:01.468Z,10.27
2022-12-18T17:59:04.114Z,11.83
2022-12-18T18:02:05.875Z,10.13
2022-12-18T18:05:08.324Z,11.10
2022-12-18T18:08:13.670Z,12.03
2022-12-18T18:11:35.505Z,12.23
2022-12-18T18:14:37.595Z,10.83
2022-12-18T18:17:39.376Z,16.40
2022-12-18T18:20:41.017Z,15.57
2022-12-18T18:23:44.163Z,13.10
2022-12-18T18:26:47.532Z,16.27
2022-12-18T18:29:49.169Z,13.47
2022-12-18T18:32:50.766Z,15.93
2022-12-18T18:35:55.008Z,14.27
2022-12-18T18:38:58.273Z,16.37
2022-12-18T18:41:59.874Z,14.73
2022-12-18T18:45:01.449Z,16.90
2022-12-18T18:48:03.052Z,15.60
2022-12-18T18:51:09.533Z,24.07
2022-12-18T18:54:13.125Z,16.27
2022-12-18T18:57:26.291Z,13.90
2022-12-18T19:00:30.427Z,17.03
2022-12-18T19:03:35.219Z,16.33
2022-12-18T19:06:36.889Z,16.30
2022-12-18T19:09:39.063Z,13.97
2022-12-18T19:12:59.414Z,14.77
2022-12-18T19:16:05.407Z,15.77
2022-12-18T19:19:07.574Z,16.83
2022-12-18T19:22:09.695Z,14.17
2022-12-18T19:25:11.573Z,19.27
2022-12-18T19:28:16.426Z,14.87
2022-12-18T19:31:27.022Z,13.47
2022-12-18T19:34:29.932Z,12.87
2022-12-18T19:37:31.708Z,14.30
2022-12-18T19:40:33.643Z,14.43
2022-12-18T19:43:39.448Z,17.03
2022-12-18T19:46:46.377Z,15.30
2022-12-18T19:49:51.607Z,15.97
2022-12-18T19:52:53.467Z,15.87
2022-12-18T19:55:55.544Z,15.33
2022-12-18T19:58:58.823Z,16.53
2022-12-18T20:02:00.621Z,17.70
2022-12-18T20:05:04.409Z,21.50
2022-12-18T20:08:08.281Z,15.17
2022-12-18T20:11:09.971Z,20.80
2022-12-18T20:14:12.366Z,14.80
2022-12-18T20:17:14.040Z,15.23
2022-12-18T20:20:15.701Z,14.90
2022-12-18T20:23:18.371Z,13.37
2022-12-18T20:26:20.083Z,13.77
2022-12-18T20:29:21.882Z,14.57
2022-12-18T20:32:23.505Z,13.33
2022-12-18T20:35:28.177Z,13.00
2022-12-18T20:38:30.620Z,13.43
2022-12-18T20:41:37.371Z,13.10
2022-12-18T20:44:40.206Z,13.70
2022-12-18T20:47:41.855Z,13.47
2022-12-18T20:50:43.580Z,13.87
2022-12-18T20:53:46.037Z,14.70
2022-12-18T20:56:48.024Z,14.37
2022-12-18T20:59:49.589Z,13.57
2022-12-18T21:02:51.318Z,15.10
2022-12-18T21:05:53.342Z,13.03
2022-12-18T21:08:54.957Z,13.33
2022-12-18T21:12:15.297Z,14.33
2022-12-18T21:15:16.915Z,13.80
2022-12-18T21:18:18.585Z,14.47
2022-12-18T21:21:26.253Z,14.73
2022-12-18T21:24:32.515Z,14.60
2022-12-18T21:27:34.737Z,14.77
2022-12-18T21:30:36.598Z,15.37
2022-12-18T21:33:38.336Z,14.53
2022-12-18T21:36:40.436Z,14.37
2022-12-18T21:39:42.083Z,13.83
2022-12-18T21:43:02.531Z,14.37
2022-12-18T21:46:04.175Z,13.73
2022-12-18T21:49:06.953Z,12.93
2022-12-18T21:52:08.539Z,14.67
2022-12-18T21:55:10.513Z,14.03
2022-12-18T21:58:12.182Z,14.17
2022-12-18T22:01:13.833Z,14.47
2022-12-18T22:04:15.924Z,14.97
2022-12-18T22:07:17.667Z,14.33
2022-12-18T22:10:19.294Z,15.37
2022-12-18T22:13:20.861Z,14.97
2022-12-18T22:16:22.921Z,15.20
2022-12-18T22:19:27.652Z,16.20
2022-12-18T22:22:29.453Z,16.77
2022-12-18T22:25:31.062Z,16.73
2022-12-18T22:28:51.540Z,15.93
2022-12-18T22:31:53.099Z,14.23
2022-12-18T22:34:55.218Z,15.50
2022-12-18T22:37:58.487Z,15.07
2022-12-18T22:41:00.146Z,15.00
2022-12-18T22:44:01.729Z,16.83
2022-12-18T22:47:06.348Z,16.10
2022-12-18T22:50:10.202Z,16.53
2022-12-18T22:53:12.464Z,16.67
2022-12-18T22:56:20.139Z,16.03
2022-12-18T22:59:23.511Z,16.50
2022-12-18T23:02:25.392Z,16.93
2022-12-18T23:05:27.247Z,16.60
2022-12-18T23:08:28.854Z,15.63
2022-12-18T23:11:33.008Z,17.13
2022-12-18T23:14:34.564Z,16.77
2022-12-18T23:17:36.644Z,15.87
2022-12-18T23:20:38.305Z,17.10
2022-12-18T23:23:40.369Z,17.30
2022-12-18T23:26:42.059Z,16.97
2022-12-18T23:29:43.649Z,16.43
2022-12-18T23:32:47.307Z,16.80
2022-12-18T23:35:48.924Z,17.27
2022-12-18T23:38:51.598Z,16.77
2022-12-18T23:41:53.218Z,16.43
2022-12-18T23:44:54.864Z,16.77
2022-12-18T23:47:58.650Z,17.53
2022-12-18T23:51:04.277Z,17.70
2022-12-18T23:54:06.003Z,18.23
2022-12-18T23:57:07.619Z,16.80
